createdAt,value
2019-03-29T00:00:28.401Z,4.00
2019-03-29T00:01:28.429Z,3.98
2019-03-29T00:02:28.384Z,3.98
2019-03-29T00:03:28.372Z,3.89
2019-03-29T00:04:28.356Z,3.92
2019-03-29T00:05:28.360Z,3.92
2019-03-29T00:06:28.403Z,3.82
2019-03-29T00:07:38.906Z,3.75
2019-03-29T00:08:29.337Z,3.74
2019-03-29T00:09:28.545Z,3.64
2019-03-29T00:10:28.294Z,3.74
2019-03-29T00:11:28.283Z,3.67
2019-03-29T00:12:28.480Z,3.67
2019-03-29T00:13:28.260Z,3.62
2019-03-29T00:14:28.289Z,3.63
2019-03-29T00:15:28.241Z,3.75
2019-03-29T00:16:28.229Z,4.07
2019-03-29T00:17:28.231Z,4.50
2019-03-29T00:18:28.232Z,4.86
2019-03-29T00:19:28.232Z,4.88
2019-03-29T00:20:28.270Z,4.84
2019-03-29T00:21:28.177Z,4.94
2019-03-29T00:22:28.176Z,5.05
2019-03-29T00:23:28.157Z,5.11
2019-03-29T00:24:28.145Z,5.04
2019-03-29T00:25:28.165Z,4.83
2019-03-29T00:26:28.163Z,4.71
2019-03-29T00:27:28.123Z,4.57
2019-03-29T00:28:28.128Z,4.54
2019-03-29T00:29:28.090Z,4.43
2019-03-29T00:30:28.082Z,4.39
2019-03-29T00:31:28.071Z,4.29
2019-03-29T00:32:28.093Z,4.25
2019-03-29T00:33:28.049Z,4.16
2019-03-29T00:34:28.039Z,4.07
2019-03-29T00:35:28.028Z,4.25
2019-03-29T00:36:28.018Z,4.28
2019-03-29T00:37:28.016Z,4.50
2019-03-29T00:38:28.009Z,4.62
2019-03-29T00:39:27.992Z,4.87
2019-03-29T00:40:27.973Z,4.96
2019-03-29T00:41:27.965Z,4.94
2019-03-29T00:42:27.964Z,4.79
2019-03-29T00:43:27.943Z,4.74
2019-03-29T00:44:27.954Z,4.72
2019-03-29T00:45:27.926Z,4.64
2019-03-29T00:46:27.910Z,4.62
2019-03-29T00:47:27.915Z,4.50
2019-03-29T00:48:27.894Z,4.43
2019-03-29T00:49:27.884Z,4.32
2019-03-29T00:50:27.871Z,4.53
2019-03-29T00:51:27.888Z,4.65
2019-03-29T00:52:27.856Z,4.83
2019-03-29T00:53:27.837Z,4.88
2019-03-29T00:54:28.161Z,4.75
2019-03-29T00:55:27.816Z,4.61
2019-03-29T00:56:27.806Z,4.59
2019-03-29T00:57:27.824Z,4.50
2019-03-29T00:58:27.829Z,4.34
2019-03-29T00:59:27.774Z,4.42
2019-03-29T01:00:31.185Z,4.74
2019-03-29T01:01:27.753Z,4.79
2019-03-29T01:02:27.754Z,4.71
2019-03-29T01:03:27.736Z,4.51
2019-03-29T01:04:28.980Z,4.54
2019-03-29T01:05:27.709Z,4.49
2019-03-29T01:06:27.703Z,4.46
2019-03-29T01:07:27.699Z,4.29
2019-03-29T01:08:27.702Z,4.17
2019-03-29T01:09:27.674Z,4.10
2019-03-29T01:10:27.701Z,4.17
2019-03-29T01:11:27.725Z,3.98
2019-03-29T01:12:27.666Z,3.88
2019-03-29T01:13:27.628Z,3.80
2019-03-29T01:14:27.616Z,3.80
2019-03-29T01:15:27.603Z,3.74
2019-03-29T01:16:27.845Z,3.53
2019-03-29T01:17:27.611Z,3.56
2019-03-29T01:18:27.588Z,3.59
2019-03-29T01:19:27.570Z,3.70
2019-03-29T01:20:27.578Z,3.75
2019-03-29T01:21:27.547Z,3.89
2019-03-29T01:22:27.534Z,4.06
2019-03-29T01:23:27.581Z,3.98
2019-03-29T01:24:27.512Z,3.92
2019-03-29T01:25:27.497Z,3.89
2019-03-29T01:26:27.487Z,4.06
2019-03-29T01:27:27.489Z,4.17
2019-03-29T01:28:27.476Z,4.20
2019-03-29T01:29:27.481Z,4.16
2019-03-29T01:30:27.578Z,4.04
2019-03-29T01:31:27.445Z,3.93
2019-03-29T01:32:27.424Z,3.99
2019-03-29T01:33:27.422Z,4.13
2019-03-29T01:34:27.405Z,4.17
2019-03-29T01:35:27.394Z,4.20
2019-03-29T01:36:28.079Z,4.11
2019-03-29T01:37:27.375Z,4.06
2019-03-29T01:38:27.370Z,3.92
2019-03-29T01:39:27.349Z,3.92
2019-03-29T01:40:27.347Z,3.82
2019-03-29T01:41:27.373Z,3.81
2019-03-29T01:42:27.338Z,3.62
2019-03-29T01:43:27.373Z,3.71
2019-03-29T01:44:28.018Z,3.63
2019-03-29T01:45:27.286Z,3.57
2019-03-29T01:46:27.278Z,3.54
2019-03-29T01:47:27.268Z,3.62
2019-03-29T01:48:27.298Z,3.63
2019-03-29T01:49:27.250Z,3.75
2019-03-29T01:50:27.235Z,3.93
2019-03-29T01:51:27.890Z,3.68
2019-03-29T01:52:27.216Z,3.54
2019-03-29T01:53:27.216Z,3.53
2019-03-29T01:54:27.230Z,3.42
2019-03-29T01:55:27.184Z,3.39
2019-03-29T01:56:27.187Z,3.57
2019-03-29T01:57:27.169Z,3.60
2019-03-29T01:58:27.161Z,3.46
2019-03-29T01:59:27.141Z,3.41
2019-03-29T02:00:27.131Z,3.30
2019-03-29T02:01:27.143Z,3.23
2019-03-29T02:02:27.119Z,3.17
2019-03-29T02:03:27.118Z,3.12
2019-03-29T02:04:27.089Z,3.07
2019-03-29T02:05:27.772Z,2.97
2019-03-29T02:06:27.092Z,2.92
2019-03-29T02:07:27.115Z,2.80
2019-03-29T02:08:35.704Z,2.79
2019-03-29T02:09:28.049Z,2.79
2019-03-29T02:10:27.044Z,2.77
2019-03-29T02:11:27.017Z,2.79
2019-03-29T02:12:27.005Z,2.81
2019-03-29T02:13:27.039Z,3.04
2019-03-29T02:14:27.025Z,3.17
2019-03-29T02:15:26.978Z,3.13
2019-03-29T02:16:26.976Z,3.10
2019-03-29T02:17:26.953Z,3.22
2019-03-29T02:18:26.942Z,3.35
2019-03-29T02:19:27.041Z,3.26
2019-03-29T02:20:26.923Z,3.16
2019-03-29T02:21:26.912Z,3.12
2019-03-29T02:22:26.904Z,3.01
2019-03-29T02:23:26.891Z,3.13
2019-03-29T02:24:26.892Z,3.12
2019-03-29T02:25:26.901Z,3.15
2019-03-29T02:26:26.860Z,3.05
2019-03-29T02:27:27.231Z,2.84
2019-03-29T02:28:26.841Z,2.90
2019-03-29T02:29:26.855Z,2.87
2019-03-29T02:30:26.823Z,2.79
2019-03-29T02:31:28.842Z,2.73
2019-03-29T02:32:26.817Z,2.73
2019-03-29T02:33:26.796Z,2.79
2019-03-29T02:34:26.795Z,2.90
2019-03-29T02:35:26.774Z,2.84
2019-03-29T02:36:26.757Z,2.83
2019-03-29T02:37:26.746Z,2.92
2019-03-29T02:38:26.758Z,2.95
2019-03-29T02:39:27.066Z,2.83
2019-03-29T02:40:26.715Z,2.98
2019-03-29T02:41:26.706Z,3.10
2019-03-29T02:42:26.702Z,3.12
2019-03-29T02:43:26.683Z,2.94
2019-03-29T02:44:26.683Z,3.20
2019-03-29T02:45:26.675Z,3.19
2019-03-29T02:46:26.672Z,3.13
2019-03-29T02:47:26.645Z,3.07
2019-03-29T02:48:26.638Z,2.87
2019-03-29T02:49:26.632Z,2.87
2019-03-29T02:50:26.611Z,2.87
2019-03-29T02:51:26.603Z,2.92
2019-03-29T02:52:26.596Z,2.76
2019-03-29T02:53:26.602Z,2.77
2019-03-29T02:54:26.597Z,2.79
2019-03-29T02:55:26.652Z,2.61
2019-03-29T02:56:26.546Z,2.63
2019-03-29T02:57:26.536Z,2.30
2019-03-29T02:58:26.533Z,2.19
2019-03-29T02:59:26.560Z,2.30
2019-03-29T03:00:26.507Z,2.73
2019-03-29T03:01:26.495Z,2.76
2019-03-29T03:02:26.922Z,2.83
2019-03-29T03:03:26.473Z,2.69
2019-03-29T03:04:26.473Z,2.80
2019-03-29T03:05:26.478Z,2.89
2019-03-29T03:06:26.446Z,3.07
2019-03-29T03:07:26.433Z,3.04
2019-03-29T03:08:26.426Z,2.99
2019-03-29T03:09:26.431Z,2.94
2019-03-29T03:10:26.401Z,2.83
2019-03-29T03:11:26.429Z,2.73
2019-03-29T03:12:26.416Z,2.73
2019-03-29T03:13:26.368Z,2.79
2019-03-29T03:14:26.378Z,2.76
2019-03-29T03:15:26.347Z,2.50
2019-03-29T03:16:26.337Z,2.55
2019-03-29T03:17:26.331Z,2.40
2019-03-29T03:18:26.322Z,2.38
2019-03-29T03:19:26.355Z,2.36
2019-03-29T03:20:26.295Z,2.44
2019-03-29T03:21:26.283Z,2.47
2019-03-29T03:22:26.280Z,2.45
2019-03-29T03:23:26.301Z,2.43
2019-03-29T03:24:26.261Z,2.38
2019-03-29T03:25:26.283Z,2.40
2019-03-29T03:26:26.235Z,2.20
2019-03-29T03:27:26.221Z,2.26
2019-03-29T03:28:26.221Z,2.32
2019-03-29T03:29:26.212Z,2.32
2019-03-29T03:30:26.203Z,2.44
2019-03-29T03:31:26.186Z,2.48
2019-03-29T03:32:26.186Z,2.45
2019-03-29T03:33:26.158Z,2.47
2019-03-29T03:34:26.161Z,2.37
2019-03-29T03:35:26.193Z,2.29
2019-03-29T03:36:26.127Z,2.23
2019-03-29T03:37:26.127Z,2.08
2019-03-29T03:38:26.143Z,2.07
2019-03-29T03:39:32.093Z,2.23
2019-03-29T03:40:27.095Z,2.12
2019-03-29T03:41:26.075Z,2.22
2019-03-29T03:42:26.064Z,2.25
2019-03-29T03:43:26.077Z,2.04
2019-03-29T03:44:26.117Z,2.09
2019-03-29T03:45:26.043Z,2.27
2019-03-29T03:46:26.022Z,2.38
2019-03-29T03:47:26.018Z,2.29
2019-03-29T03:48:26.002Z,2.08
2019-03-29T03:49:26.015Z,2.04
2019-03-29T03:50:25.994Z,2.00
2019-03-29T03:51:25.968Z,1.98
2019-03-29T03:52:25.958Z,2.02
2019-03-29T03:53:25.948Z,2.12
2019-03-29T03:54:25.940Z,2.33
2019-03-29T03:55:25.970Z,2.89
2019-03-29T03:56:25.916Z,2.94
2019-03-29T03:57:25.907Z,2.99
2019-03-29T03:58:25.898Z,3.12
2019-03-29T03:59:25.897Z,3.08
2019-03-29T04:00:25.894Z,2.81
2019-03-29T04:01:25.886Z,2.63
2019-03-29T04:02:25.853Z,2.53
2019-03-29T04:03:25.847Z,2.50
2019-03-29T04:04:25.845Z,2.48
2019-03-29T04:05:25.830Z,2.48
2019-03-29T04:06:25.836Z,2.38
2019-03-29T04:07:25.898Z,2.47
2019-03-29T04:08:25.790Z,2.74
2019-03-29T04:09:25.811Z,2.58
2019-03-29T04:10:25.793Z,2.45
2019-03-29T04:11:25.759Z,2.40
2019-03-29T04:12:25.748Z,2.36
2019-03-29T04:13:25.759Z,2.29
2019-03-29T04:14:25.772Z,2.25
2019-03-29T04:15:25.734Z,2.41
2019-03-29T04:16:25.708Z,2.12
2019-03-29T04:17:25.696Z,2.08
2019-03-29T04:18:25.686Z,2.11
2019-03-29T04:19:25.676Z,2.15
2019-03-29T04:20:25.692Z,2.02
2019-03-29T04:21:25.654Z,2.04
2019-03-29T04:22:25.643Z,2.04
2019-03-29T04:23:25.635Z,1.90
2019-03-29T04:24:25.624Z,1.92
2019-03-29T04:25:25.622Z,1.89
2019-03-29T04:26:25.668Z,2.01
2019-03-29T04:27:25.607Z,2.07
2019-03-29T04:28:25.581Z,2.18
2019-03-29T04:29:25.698Z,2.07
2019-03-29T04:30:25.581Z,1.95
2019-03-29T04:31:25.569Z,1.93
2019-03-29T04:32:25.570Z,1.85
2019-03-29T04:33:25.539Z,1.88
2019-03-29T04:34:25.524Z,1.90
2019-03-29T04:35:25.519Z,2.25
2019-03-29T04:36:25.499Z,2.38
2019-03-29T04:37:25.487Z,2.08
2019-03-29T04:38:25.506Z,2.01
2019-03-29T04:39:25.466Z,2.33
2019-03-29T04:40:25.471Z,2.44
2019-03-29T04:41:25.452Z,2.22
2019-03-29T04:42:25.436Z,2.23
2019-03-29T04:43:25.431Z,2.04
2019-03-29T04:44:25.451Z,2.32
2019-03-29T04:45:25.420Z,2.66
2019-03-29T04:46:25.400Z,2.63
2019-03-29T04:47:25.387Z,2.76
2019-03-29T04:48:25.375Z,2.62
2019-03-29T04:49:25.363Z,2.62
2019-03-29T04:50:25.386Z,2.65
2019-03-29T04:51:25.342Z,2.50
2019-03-29T04:52:25.369Z,2.27
2019-03-29T04:53:25.326Z,2.68
2019-03-29T04:54:25.335Z,2.79
2019-03-29T04:55:25.310Z,2.65
2019-03-29T04:56:25.309Z,2.47
2019-03-29T04:57:25.321Z,2.33
2019-03-29T04:58:25.267Z,2.29
2019-03-29T04:59:25.265Z,2.05
2019-03-29T05:00:25.291Z,2.04
2019-03-29T05:01:25.250Z,1.89
2019-03-29T05:02:25.230Z,1.85
2019-03-29T05:03:25.219Z,1.68
2019-03-29T05:04:25.211Z,1.89
2019-03-29T05:05:25.244Z,2.05
2019-03-29T05:06:25.200Z,2.20
2019-03-29T05:07:25.178Z,2.22
2019-03-29T05:08:25.171Z,2.04
2019-03-29T05:09:25.158Z,2.29
2019-03-29T05:10:25.155Z,2.29
2019-03-29T05:11:25.132Z,2.33
2019-03-29T05:12:25.124Z,2.61
2019-03-29T05:13:25.166Z,2.61
2019-03-29T05:14:25.110Z,2.81
2019-03-29T05:15:25.108Z,2.80
2019-03-29T05:16:25.081Z,2.89
2019-03-29T05:17:25.071Z,2.97
2019-03-29T05:18:25.063Z,3.12
2019-03-29T05:19:25.067Z,2.97
2019-03-29T05:20:25.087Z,2.83
2019-03-29T05:21:25.029Z,2.95
2019-03-29T05:22:25.019Z,2.89
2019-03-29T05:23:25.008Z,2.95
2019-03-29T05:24:24.998Z,2.84
2019-03-29T05:25:24.988Z,2.94
2019-03-29T05:26:25.616Z,2.95
2019-03-29T05:27:24.967Z,2.98
2019-03-29T05:28:24.997Z,2.90
2019-03-29T05:29:24.945Z,2.95
2019-03-29T05:30:24.936Z,3.04
2019-03-29T05:31:24.961Z,2.92
2019-03-29T05:32:24.914Z,2.80
2019-03-29T05:33:24.917Z,2.80
2019-03-29T05:34:24.910Z,2.76
2019-03-29T05:35:24.888Z,2.94
2019-03-29T05:36:24.882Z,2.92
2019-03-29T05:37:24.865Z,2.95
2019-03-29T05:38:24.858Z,2.90
2019-03-29T05:39:24.846Z,2.87
2019-03-29T05:40:34.718Z,2.98
2019-03-29T05:41:25.900Z,2.98
2019-03-29T05:42:24.812Z,2.84
2019-03-29T05:43:24.816Z,2.84
2019-03-29T05:44:24.804Z,2.80
2019-03-29T05:45:24.782Z,2.76
2019-03-29T05:46:24.781Z,2.68
2019-03-29T05:47:24.858Z,2.83
2019-03-29T05:48:24.749Z,2.71
2019-03-29T05:49:24.743Z,2.63
2019-03-29T05:50:24.758Z,2.86
2019-03-29T05:51:24.725Z,2.74
2019-03-29T05:52:24.706Z,2.94
2019-03-29T05:53:24.694Z,2.95
2019-03-29T05:54:24.692Z,3.08
2019-03-29T05:55:32.668Z,3.12
2019-03-29T05:56:25.755Z,3.15
2019-03-29T05:57:24.655Z,3.16
2019-03-29T05:58:24.656Z,3.22
2019-03-29T05:59:24.658Z,3.35
2019-03-29T06:00:24.655Z,3.63
2019-03-29T06:01:24.625Z,3.64
2019-03-29T06:02:24.695Z,3.60
2019-03-29T06:03:24.630Z,3.63
2019-03-29T06:04:24.580Z,3.68
2019-03-29T06:05:24.575Z,3.75
2019-03-29T06:06:24.568Z,3.89
2019-03-29T06:07:24.548Z,4.04
2019-03-29T06:08:24.537Z,4.16
2019-03-29T06:09:24.547Z,4.11
2019-03-29T06:10:24.518Z,4.47
2019-03-29T06:11:24.517Z,4.88
2019-03-29T06:12:24.504Z,5.55
2019-03-29T06:13:24.485Z,5.99
2019-03-29T06:14:24.475Z,6.53
2019-03-29T06:15:24.490Z,7.08
2019-03-29T06:16:38.099Z,7.67
2019-03-29T06:17:25.443Z,8.03
2019-03-29T06:18:24.499Z,8.40
2019-03-29T06:19:24.431Z,8.89
2019-03-29T06:20:24.436Z,9.04
2019-03-29T06:21:24.453Z,9.41
2019-03-29T06:22:24.391Z,9.44
2019-03-29T06:23:24.512Z,9.48
2019-03-29T06:24:24.393Z,9.63
2019-03-29T06:25:24.381Z,9.74
2019-03-29T06:26:24.360Z,9.86
2019-03-29T06:27:24.363Z,9.78
2019-03-29T06:28:24.327Z,9.48
2019-03-29T06:29:24.321Z,9.44
2019-03-29T06:30:24.306Z,9.71
2019-03-29T06:31:24.306Z,10.02
2019-03-29T06:32:24.289Z,10.51
2019-03-29T06:33:24.331Z,10.62
2019-03-29T06:34:24.264Z,10.46
2019-03-29T06:35:24.264Z,10.39
2019-03-29T06:36:24.254Z,10.34
2019-03-29T06:37:24.249Z,10.54
2019-03-29T06:38:24.237Z,10.84
2019-03-29T06:39:24.225Z,11.39
2019-03-29T06:40:24.202Z,11.79
2019-03-29T06:41:24.205Z,12.15
2019-03-29T06:42:24.180Z,12.40
2019-03-29T06:43:24.168Z,12.54
2019-03-29T06:44:24.159Z,12.81
2019-03-29T06:45:24.158Z,12.76
2019-03-29T06:46:24.154Z,12.71
2019-03-29T06:47:24.130Z,12.61
2019-03-29T06:48:24.115Z,12.55
2019-03-29T06:49:24.155Z,12.33
2019-03-29T06:50:24.095Z,11.94
2019-03-29T06:51:24.105Z,11.94
2019-03-29T06:52:24.100Z,12.07
2019-03-29T06:53:24.062Z,12.49
2019-03-29T06:54:24.068Z,12.62
2019-03-29T06:55:24.042Z,12.52
2019-03-29T06:56:24.055Z,12.76
2019-03-29T06:57:24.035Z,12.34
2019-03-29T06:58:24.062Z,11.74
2019-03-29T06:59:24.002Z,11.45
2019-03-29T07:00:23.987Z,11.28
2019-03-29T07:01:23.985Z,11.59
2019-03-29T07:02:23.982Z,11.98
2019-03-29T07:03:23.956Z,12.48
2019-03-29T07:04:23.985Z,12.95
2019-03-29T07:05:23.953Z,13.19
2019-03-29T07:06:23.946Z,13.17
2019-03-29T07:07:24.071Z,12.88
2019-03-29T07:08:23.917Z,12.77
2019-03-29T07:09:23.890Z,12.85
2019-03-29T07:10:23.879Z,12.94
2019-03-29T07:11:23.883Z,12.80
2019-03-29T07:12:23.861Z,12.87
2019-03-29T07:13:23.865Z,13.09
2019-03-29T07:14:23.837Z,13.48
2019-03-29T07:15:23.828Z,13.50
2019-03-29T07:16:23.833Z,13.53
2019-03-29T07:17:23.805Z,13.17
2019-03-29T07:18:23.817Z,12.94
2019-03-29T07:19:23.832Z,12.76
2019-03-29T07:20:23.781Z,12.84
2019-03-29T07:21:23.774Z,12.99
2019-03-29T07:22:23.753Z,13.43
2019-03-29T07:23:23.742Z,13.90
2019-03-29T07:24:23.731Z,14.11
2019-03-29T07:25:23.732Z,14.19
2019-03-29T07:26:23.802Z,13.63
2019-03-29T07:27:23.787Z,13.62
2019-03-29T07:28:23.706Z,13.66
2019-03-29T07:29:23.683Z,13.66
2019-03-29T07:30:23.676Z,13.81
2019-03-29T07:31:23.657Z,14.05
2019-03-29T07:32:23.672Z,14.01
2019-03-29T07:33:23.657Z,13.81
2019-03-29T07:34:23.629Z,13.62
2019-03-29T07:35:23.612Z,13.93
2019-03-29T07:36:23.611Z,14.66
2019-03-29T07:37:23.618Z,14.94
2019-03-29T07:38:23.629Z,14.80
2019-03-29T07:39:23.577Z,14.94
2019-03-29T07:40:23.571Z,14.52
2019-03-29T07:41:31.597Z,14.24
2019-03-29T07:42:24.546Z,14.49
2019-03-29T07:43:24.115Z,14.71
2019-03-29T07:44:23.677Z,14.67
2019-03-29T07:45:23.556Z,14.69
2019-03-29T07:46:23.505Z,15.13
2019-03-29T07:47:23.532Z,15.33
2019-03-29T07:48:23.501Z,15.64
2019-03-29T07:49:23.563Z,15.25
2019-03-29T07:50:23.450Z,14.90
2019-03-29T07:51:23.457Z,14.86
2019-03-29T07:52:23.540Z,14.91
2019-03-29T07:53:23.453Z,15.23
2019-03-29T07:54:23.418Z,15.35
2019-03-29T07:55:23.397Z,15.23
2019-03-29T07:56:23.420Z,15.15
2019-03-29T07:57:23.410Z,15.25
2019-03-29T07:58:23.372Z,15.41
2019-03-29T07:59:23.575Z,15.25
2019-03-29T08:00:23.356Z,15.64
2019-03-29T08:01:23.359Z,16.07
2019-03-29T08:02:23.330Z,16.57
2019-03-29T08:03:23.575Z,16.37
2019-03-29T08:04:24.025Z,15.95
2019-03-29T08:05:23.290Z,15.74
2019-03-29T08:06:23.328Z,15.56
2019-03-29T08:07:27.492Z,15.18
2019-03-29T08:08:27.896Z,15.18
2019-03-29T08:09:24.250Z,15.23
2019-03-29T08:10:26.107Z,15.46
2019-03-29T08:11:26.294Z,15.60
2019-03-29T08:12:23.318Z,16.08
2019-03-29T08:13:23.208Z,16.36
2019-03-29T08:14:23.247Z,16.88
2019-03-29T08:15:23.200Z,17.33
2019-03-29T08:16:23.197Z,17.68
2019-03-29T08:17:23.175Z,17.77
2019-03-29T08:18:23.152Z,17.36
2019-03-29T08:19:23.143Z,16.59
2019-03-29T08:20:40.319Z,16.45
2019-03-29T08:21:24.118Z,16.18
2019-03-29T08:22:23.165Z,16.10
2019-03-29T08:23:23.096Z,16.08
2019-03-29T08:24:23.132Z,16.29
2019-03-29T08:25:23.078Z,16.13
2019-03-29T08:26:23.066Z,16.27
2019-03-29T08:27:23.061Z,16.52
2019-03-29T08:28:23.056Z,17.14
2019-03-29T08:29:23.044Z,17.40
2019-03-29T08:30:23.061Z,17.06
2019-03-29T08:31:23.039Z,17.33
2019-03-29T08:32:23.067Z,17.62
2019-03-29T08:33:23.082Z,17.12
2019-03-29T08:34:23.035Z,17.12
2019-03-29T08:35:22.967Z,17.28
2019-03-29T08:36:22.987Z,17.53
2019-03-29T08:37:22.979Z,17.77
2019-03-29T08:38:22.934Z,18.29
2019-03-29T08:39:28.056Z,17.98
2019-03-29T08:40:23.927Z,17.76
2019-03-29T08:41:22.906Z,17.99
2019-03-29T08:42:22.932Z,18.01
2019-03-29T08:43:22.902Z,17.99
2019-03-29T08:44:22.902Z,18.36
2019-03-29T08:45:22.881Z,18.65
2019-03-29T08:46:22.872Z,18.46
2019-03-29T08:47:22.856Z,17.53
2019-03-29T08:48:22.827Z,18.05
2019-03-29T08:49:22.847Z,18.49
2019-03-29T08:50:22.808Z,18.01
2019-03-29T08:51:22.792Z,18.29
2019-03-29T08:52:22.807Z,18.79
2019-03-29T08:53:22.793Z,19.17
2019-03-29T08:54:22.809Z,19.16
2019-03-29T08:55:22.758Z,19.12
2019-03-29T08:56:22.766Z,19.31
2019-03-29T08:57:23.127Z,19.15
2019-03-29T08:58:22.722Z,19.31
2019-03-29T08:59:22.711Z,19.20
2019-03-29T09:00:22.695Z,19.12
2019-03-29T09:01:22.684Z,18.59
2019-03-29T09:02:25.054Z,18.91
2019-03-29T09:03:22.678Z,19.05
2019-03-29T09:04:22.655Z,18.83
2019-03-29T09:05:22.642Z,18.53
2019-03-29T09:06:22.639Z,18.72
2019-03-29T09:07:22.639Z,18.72
2019-03-29T09:08:22.619Z,17.84
2019-03-29T09:09:22.624Z,18.11
2019-03-29T09:10:22.596Z,18.65
2019-03-29T09:11:22.599Z,18.83
2019-03-29T09:12:22.634Z,18.62
2019-03-29T09:13:22.561Z,18.84
2019-03-29T09:14:22.551Z,19.28
2019-03-29T09:15:22.561Z,19.53
2019-03-29T09:16:22.549Z,19.16
2019-03-29T09:17:22.535Z,19.05
2019-03-29T09:18:25.787Z,18.65
2019-03-29T09:19:22.519Z,18.39
2019-03-29T09:20:22.490Z,18.41
2019-03-29T09:21:22.471Z,19.01
2019-03-29T09:22:22.477Z,19.27
2019-03-29T09:23:22.447Z,19.06
2019-03-29T09:24:22.682Z,19.27
2019-03-29T09:25:22.431Z,18.69
2019-03-29T09:26:22.421Z,18.93
2019-03-29T09:27:22.420Z,19.10
2019-03-29T09:28:22.405Z,19.17
2019-03-29T09:29:22.395Z,19.65
2019-03-29T09:30:22.460Z,19.85
2019-03-29T09:31:22.364Z,19.49
2019-03-29T09:32:22.408Z,19.50
2019-03-29T09:33:22.348Z,20.17
2019-03-29T09:34:22.345Z,20.71
2019-03-29T09:35:22.331Z,20.25
2019-03-29T09:36:22.311Z,19.80
2019-03-29T09:37:22.321Z,20.20
2019-03-29T09:38:22.298Z,20.54
2019-03-29T09:39:22.277Z,20.19
2019-03-29T09:40:22.268Z,20.07
2019-03-29T09:41:22.271Z,20.16
2019-03-29T09:42:28.792Z,20.19
2019-03-29T09:43:26.376Z,19.61
2019-03-29T09:44:22.275Z,19.80
2019-03-29T09:45:22.260Z,20.25
2019-03-29T09:46:22.202Z,20.76
2019-03-29T09:47:22.224Z,21.27
2019-03-29T09:48:22.201Z,21.34
2019-03-29T09:49:22.178Z,21.28
2019-03-29T09:50:23.177Z,20.61
2019-03-29T09:51:22.174Z,19.97
2019-03-29T09:52:22.154Z,19.87
2019-03-29T09:53:22.143Z,20.34
2019-03-29T09:54:22.125Z,20.93
2019-03-29T09:55:22.167Z,20.96
2019-03-29T09:56:22.113Z,20.96
2019-03-29T09:57:36.035Z,20.79
2019-03-29T09:58:23.087Z,20.33
2019-03-29T09:59:23.235Z,20.68
2019-03-29T10:00:23.437Z,20.38
2019-03-29T10:01:22.134Z,20.61
2019-03-29T10:02:22.036Z,20.30
2019-03-29T10:03:22.033Z,19.86
2019-03-29T10:04:22.012Z,19.85
2019-03-29T10:05:22.115Z,20.22
2019-03-29T10:06:22.002Z,20.33
2019-03-29T10:07:22.010Z,20.71
2019-03-29T10:08:22.018Z,20.82
2019-03-29T10:09:21.962Z,20.63
2019-03-29T10:10:21.958Z,20.00
2019-03-29T10:11:22.314Z,19.82
2019-03-29T10:12:21.985Z,20.42
2019-03-29T10:13:21.987Z,21.11
2019-03-29T10:14:21.908Z,21.40
2019-03-29T10:15:21.897Z,20.71
2019-03-29T10:16:21.894Z,20.12
2019-03-29T10:17:21.890Z,20.31
2019-03-29T10:18:21.873Z,21.26
2019-03-29T10:19:21.862Z,21.96
2019-03-29T10:20:21.856Z,22.64
2019-03-29T10:21:21.839Z,22.88
2019-03-29T10:22:21.824Z,23.12
2019-03-29T10:23:21.848Z,23.03
2019-03-29T10:24:21.829Z,22.12
2019-03-29T10:25:21.906Z,21.63
2019-03-29T10:26:21.783Z,21.63
2019-03-29T10:27:21.787Z,22.04
2019-03-29T10:28:21.809Z,22.49
2019-03-29T10:29:21.761Z,22.30
2019-03-29T10:30:21.743Z,21.51
2019-03-29T10:31:32.114Z,21.15
2019-03-29T10:32:22.745Z,20.79
2019-03-29T10:33:21.721Z,20.50
2019-03-29T10:34:21.749Z,20.33
2019-03-29T10:35:21.692Z,20.75
2019-03-29T10:36:21.682Z,20.40
2019-03-29T10:37:21.671Z,20.90
2019-03-29T10:38:21.673Z,21.06
2019-03-29T10:39:21.646Z,21.26
2019-03-29T10:40:21.960Z,21.46
2019-03-29T10:41:22.698Z,21.22
2019-03-29T10:42:21.632Z,21.09
2019-03-29T10:43:21.633Z,20.79
2019-03-29T10:44:21.599Z,20.33
2019-03-29T10:45:21.583Z,20.56
2019-03-29T10:46:21.573Z,20.76
2019-03-29T10:47:21.565Z,21.06
2019-03-29T10:48:21.591Z,20.91
2019-03-29T10:49:21.589Z,20.94
2019-03-29T10:50:21.527Z,21.30
2019-03-29T10:51:21.534Z,22.01
2019-03-29T10:52:21.558Z,22.46
2019-03-29T10:53:21.513Z,22.35
2019-03-29T10:54:21.518Z,22.30
2019-03-29T10:55:21.487Z,21.86
2019-03-29T10:56:33.265Z,21.42
2019-03-29T10:57:22.465Z,21.40
2019-03-29T10:58:21.634Z,21.08
2019-03-29T10:59:27.617Z,21.22
2019-03-29T11:00:22.450Z,21.46
2019-03-29T11:01:24.625Z,21.48
2019-03-29T11:02:21.415Z,21.82
2019-03-29T11:03:21.402Z,22.14
2019-03-29T11:04:21.492Z,21.67
2019-03-29T11:05:21.388Z,21.66
2019-03-29T11:06:21.399Z,21.48
2019-03-29T11:07:21.349Z,21.00
2019-03-29T11:08:21.349Z,21.16
2019-03-29T11:09:21.354Z,21.74
2019-03-29T11:10:21.321Z,21.81
2019-03-29T11:11:21.316Z,22.01
2019-03-29T11:12:21.302Z,21.27
2019-03-29T11:13:21.289Z,20.71
2019-03-29T11:14:21.290Z,20.72
2019-03-29T11:15:21.284Z,20.51
2019-03-29T11:16:21.303Z,21.11
2019-03-29T11:17:21.256Z,21.79
2019-03-29T11:18:21.237Z,21.81
2019-03-29T11:19:21.247Z,22.12
2019-03-29T11:20:21.223Z,22.49
2019-03-29T11:21:21.210Z,22.64
2019-03-29T11:22:21.202Z,22.67
2019-03-29T11:23:21.187Z,22.89
2019-03-29T11:24:21.193Z,22.14
2019-03-29T11:25:21.164Z,21.18
2019-03-29T11:26:21.153Z,21.12
2019-03-29T11:27:22.647Z,20.93
2019-03-29T11:28:21.135Z,20.94
2019-03-29T11:29:21.136Z,20.78
2019-03-29T11:30:21.133Z,20.96
2019-03-29T11:31:21.113Z,21.27
2019-03-29T11:32:21.100Z,21.12
2019-03-29T11:33:21.096Z,21.26
2019-03-29T11:34:21.197Z,21.40
2019-03-29T11:35:21.071Z,22.02
2019-03-29T11:36:21.057Z,22.14
2019-03-29T11:37:21.058Z,21.77
2019-03-29T11:38:21.073Z,22.19
2019-03-29T11:39:21.033Z,22.15
2019-03-29T11:40:21.029Z,22.15
2019-03-29T11:41:21.018Z,21.96
2019-03-29T11:42:21.001Z,21.70
2019-03-29T11:43:27.226Z,21.34
2019-03-29T11:44:21.995Z,20.79
2019-03-29T11:45:20.983Z,21.05
2019-03-29T11:46:20.972Z,21.24
2019-03-29T11:47:20.957Z,21.15
2019-03-29T11:48:20.932Z,21.05
2019-03-29T11:49:20.949Z,21.27
2019-03-29T11:50:20.923Z,21.34
2019-03-29T11:51:20.902Z,21.55
2019-03-29T11:52:20.899Z,21.82
2019-03-29T11:53:20.920Z,21.56
2019-03-29T11:54:20.894Z,21.67
2019-03-29T11:55:20.907Z,21.81
2019-03-29T11:56:20.889Z,21.98
2019-03-29T11:57:20.847Z,21.42
2019-03-29T11:58:20.852Z,21.66
2019-03-29T11:59:20.856Z,21.91
2019-03-29T12:00:20.955Z,21.86
2019-03-29T12:01:20.803Z,22.04
2019-03-29T12:02:31.242Z,21.93
2019-03-29T12:03:21.792Z,22.02
2019-03-29T12:04:20.788Z,22.02
2019-03-29T12:05:20.771Z,22.09
2019-03-29T12:06:20.761Z,22.20
2019-03-29T12:07:20.751Z,22.57
2019-03-29T12:08:20.749Z,22.81
2019-03-29T12:09:20.742Z,22.41
2019-03-29T12:10:20.722Z,21.98
2019-03-29T12:11:20.731Z,21.83
2019-03-29T12:12:20.707Z,22.01
2019-03-29T12:13:20.709Z,21.56
2019-03-29T12:14:20.781Z,21.99
2019-03-29T12:15:20.665Z,22.19
2019-03-29T12:16:20.689Z,22.05
2019-03-29T12:17:20.702Z,22.49
2019-03-29T12:18:20.770Z,22.52
2019-03-29T12:19:20.650Z,22.23
2019-03-29T12:20:20.662Z,21.66
2019-03-29T12:21:20.846Z,21.68
2019-03-29T12:22:20.608Z,22.12
2019-03-29T12:23:20.654Z,22.67
2019-03-29T12:24:20.571Z,22.63
2019-03-29T12:25:20.647Z,22.94
2019-03-29T12:26:20.558Z,22.97
2019-03-29T12:27:20.607Z,23.32
2019-03-29T12:28:20.534Z,23.34
2019-03-29T12:29:20.516Z,23.41
2019-03-29T12:30:31.403Z,22.27
2019-03-29T12:31:21.506Z,21.75
2019-03-29T12:32:20.496Z,22.26
2019-03-29T12:33:20.485Z,22.69
2019-03-29T12:34:20.489Z,23.07
2019-03-29T12:35:20.486Z,23.23
2019-03-29T12:36:20.471Z,23.09
2019-03-29T12:37:20.443Z,23.52
2019-03-29T12:38:20.491Z,23.32
2019-03-29T12:39:20.415Z,23.00
2019-03-29T12:40:20.431Z,23.44
2019-03-29T12:41:20.406Z,23.60
2019-03-29T12:42:20.427Z,24.11
2019-03-29T12:43:20.386Z,24.15
2019-03-29T12:44:20.365Z,24.02
2019-03-29T12:45:20.394Z,24.24
2019-03-29T12:46:20.343Z,24.19
2019-03-29T12:47:20.385Z,23.75
2019-03-29T12:48:20.325Z,23.60
2019-03-29T12:49:20.309Z,23.34
2019-03-29T12:50:20.392Z,22.29
2019-03-29T12:51:20.325Z,22.44
2019-03-29T12:52:20.276Z,23.29
2019-03-29T12:53:20.271Z,23.82
2019-03-29T12:54:20.269Z,24.09
2019-03-29T12:55:20.284Z,24.51
2019-03-29T12:56:20.259Z,24.36
2019-03-29T12:57:20.226Z,24.29
2019-03-29T12:58:20.239Z,24.18
2019-03-29T12:59:20.205Z,24.21
2019-03-29T13:00:20.206Z,23.87
2019-03-29T13:01:20.196Z,23.52
2019-03-29T13:02:20.204Z,23.12
2019-03-29T13:03:20.385Z,22.70
2019-03-29T13:04:20.167Z,22.39
2019-03-29T13:05:20.205Z,22.82